createdAt,value
2022-08-05T00:01:36.510Z,66.37
2022-08-05T00:04:18.141Z,65.96
2022-08-05T00:06:47.275Z,65.11
2022-08-05T00:09:15.840Z,66.08
2022-08-05T00:11:49.038Z,64.92
2022-08-05T00:14:22.542Z,65.46
2022-08-05T00:16:54.985Z,65.04
2022-08-05T00:19:23.437Z,64.74
2022-08-05T00:21:52.359Z,65.77
2022-08-05T00:24:24.617Z,65.85
2022-08-05T00:26:58.735Z,65.28
2022-08-05T00:29:27.563Z,66.11
2022-08-05T00:32:10.619Z,66.99
2022-08-05T00:35:03.713Z,66.26
2022-08-05T00:37:50.343Z,66.90
2022-08-05T00:40:27.172Z,67.80
2022-08-05T00:43:01.306Z,68.52
2022-08-05T00:45:42.756Z,68.76
2022-08-05T00:48:27.567Z,68.44
2022-08-05T00:50:58.669Z,68.74
2022-08-05T00:54:00.680Z,69.22
2022-08-05T00:56:17.271Z,69.79
2022-08-05T00:58:45.651Z,70.17
2022-08-05T01:01:15.777Z,67.34
2022-08-05T01:03:52.831Z,67.45
2022-08-05T01:06:19.773Z,67.72
2022-08-05T01:08:47.379Z,67.76
2022-08-05T01:11:36.964Z,68.20
2022-08-05T01:14:27.794Z,68.92
2022-08-05T01:17:17.778Z,70.09
2022-08-05T01:20:38.899Z,68.92
2022-08-05T01:23:53.111Z,69.64
2022-08-05T01:27:50.859Z,69.47
2022-08-05T01:30:34.048Z,70.82
2022-08-05T01:33:14.526Z,71.51
2022-08-05T01:35:54.683Z,73.25
2022-08-05T01:38:29.944Z,74.15
2022-08-05T01:41:03.671Z,74.93
2022-08-05T01:43:38.019Z,76.17
2022-08-05T01:46:16.503Z,77.63
2022-08-05T01:49:01.860Z,78.95
2022-08-05T01:51:59.936Z,78.25
2022-08-05T01:54:52.047Z,79.79
2022-08-05T01:58:11.160Z,79.46
2022-08-05T02:00:38.381Z,80.83
2022-08-05T02:03:38.156Z,81.76
2022-08-05T02:06:33.425Z,82.09
2022-08-05T02:08:59.006Z,81.57
2022-08-05T02:11:48.137Z,82.99
2022-08-05T02:14:43.237Z,85.10
2022-08-05T02:18:31.484Z,83.59
2022-08-05T02:20:51.982Z,85.05
2022-08-05T02:23:29.180Z,86.06
2022-08-05T02:26:06.182Z,85.73
2022-08-05T02:28:46.036Z,87.29
2022-08-05T02:31:26.770Z,88.12
2022-08-05T02:34:06.688Z,89.37
2022-08-05T02:36:45.776Z,89.71
2022-08-05T02:39:21.394Z,90.28
2022-08-05T02:41:57.941Z,91.14
2022-08-05T02:44:34.246Z,90.02
2022-08-05T02:47:05.911Z,89.41
2022-08-05T02:49:42.360Z,90.33
2022-08-05T02:52:29.666Z,90.47
2022-08-05T02:55:05.572Z,90.39
2022-08-05T02:58:11.774Z,91.71
2022-08-05T03:00:29.149Z,90.20
2022-08-05T03:03:00.890Z,89.35
2022-08-05T03:06:53.941Z,88.61
2022-08-05T03:08:27.014Z,89.80
2022-08-05T03:11:53.057Z,88.87
2022-08-05T03:13:52.187Z,89.19
2022-08-05T03:16:30.530Z,89.36
2022-08-05T03:19:00.782Z,89.55
2022-08-05T03:21:41.270Z,91.66
2022-08-05T03:24:10.460Z,90.86
2022-08-05T03:26:40.606Z,91.25
2022-08-05T03:29:07.638Z,91.47
2022-08-05T03:31:57.377Z,90.90
2022-08-05T03:34:29.261Z,89.22
2022-08-05T03:36:57.116Z,87.65
2022-08-05T03:39:27.271Z,87.27
2022-08-05T03:41:56.647Z,87.06
2022-08-05T03:44:25.323Z,85.90
2022-08-05T03:46:56.418Z,85.59
2022-08-05T03:49:24.270Z,85.01
2022-08-05T03:52:38.697Z,84.23
2022-08-05T03:56:04.332Z,85.42
2022-08-05T03:58:00.858Z,84.06
2022-08-05T04:00:32.362Z,84.11
2022-08-05T04:03:07.953Z,83.69
2022-08-05T04:05:45.282Z,84.53
2022-08-05T04:08:35.071Z,84.15
2022-08-05T04:11:08.667Z,83.29
2022-08-05T04:13:49.930Z,83.42
2022-08-05T04:16:24.357Z,83.18
2022-08-05T04:18:54.879Z,82.68
2022-08-05T04:22:05.106Z,83.90
2022-08-05T04:24:19.179Z,84.88
2022-08-05T04:26:50.533Z,83.70
2022-08-05T04:29:17.556Z,84.33
2022-08-05T04:31:44.544Z,84.27
2022-08-05T04:34:18.550Z,82.03
2022-08-05T04:36:50.063Z,80.62
2022-08-05T04:39:19.701Z,81.96
2022-08-05T04:41:48.893Z,81.78
2022-08-05T04:44:21.469Z,82.00
2022-08-05T04:46:56.228Z,82.10
2022-08-05T04:49:24.695Z,82.34
2022-08-05T04:52:07.763Z,81.39
2022-08-05T04:54:34.879Z,80.81
2022-08-05T04:57:01.899Z,80.64
2022-08-05T04:59:38.516Z,81.29
2022-08-05T05:02:37.629Z,82.59
2022-08-05T05:05:02.358Z,82.83
2022-08-05T05:07:32.382Z,78.83
2022-08-05T05:10:04.349Z,78.73
2022-08-05T05:12:31.879Z,78.63
2022-08-05T05:14:58.942Z,79.07
2022-08-05T05:17:56.205Z,77.81
2022-08-05T05:20:28.431Z,76.55
2022-08-05T05:23:07.995Z,76.62
2022-08-05T05:25:40.523Z,75.97
2022-08-05T05:28:09.378Z,75.38
2022-08-05T05:30:39.650Z,75.72
2022-08-05T05:33:15.987Z,73.86
2022-08-05T05:35:47.459Z,74.11
2022-08-05T05:38:22.775Z,74.12
2022-08-05T05:40:57.069Z,73.13
2022-08-05T05:43:57.129Z,73.39
2022-08-05T05:46:15.896Z,74.95
2022-08-05T05:48:47.836Z,74.66
2022-08-05T05:51:28.085Z,74.77
2022-08-05T05:53:59.548Z,75.25
2022-08-05T05:56:34.438Z,75.22
2022-08-05T05:59:08.073Z,73.97
2022-08-05T06:01:57.281Z,74.50
2022-08-05T06:04:25.461Z,74.07
2022-08-05T06:06:52.562Z,75.21
2022-08-05T06:09:25.831Z,74.30
2022-08-05T06:12:12.131Z,74.73
2022-08-05T06:14:40.122Z,75.04
2022-08-05T06:17:22.432Z,75.45
2022-08-05T06:19:57.129Z,77.25
2022-08-05T06:22:35.803Z,79.01
2022-08-05T06:25:59.028Z,80.09
2022-08-05T06:28:11.645Z,81.08
2022-08-05T06:30:42.169Z,81.85
2022-08-05T06:33:10.740Z,82.04
2022-08-05T06:36:05.656Z,81.79
2022-08-05T06:38:35.885Z,80.92
2022-08-05T06:41:05.512Z,80.12
2022-08-05T06:43:59.187Z,79.41
2022-08-05T06:46:29.759Z,80.36
2022-08-05T06:48:59.915Z,79.54
2022-08-05T06:51:30.106Z,77.90
2022-08-05T06:54:04.316Z,78.42
2022-08-05T06:56:34.892Z,75.91
2022-08-05T06:59:09.766Z,74.88
2022-08-05T07:01:41.525Z,76.25
2022-08-05T07:04:10.277Z,75.64
2022-08-05T07:06:37.384Z,77.00
2022-08-05T07:09:05.512Z,74.57
2022-08-05T07:11:36.940Z,74.04
2022-08-05T07:14:29.694Z,74.02
2022-08-05T07:17:58.678Z,71.86
2022-08-05T07:22:42.119Z,71.55
2022-08-05T07:25:23.945Z,70.95
2022-08-05T07:28:05.349Z,70.82
2022-08-05T07:30:39.769Z,71.18
2022-08-05T07:33:16.850Z,71.30
2022-08-05T07:36:03.456Z,72.58
2022-08-05T07:38:43.179Z,73.15
2022-08-05T07:42:08.761Z,73.36
2022-08-05T07:44:18.617Z,73.08
2022-08-05T07:46:49.689Z,74.97
2022-08-05T07:49:19.215Z,73.99
2022-08-05T07:51:53.373Z,72.76
2022-08-05T07:54:31.639Z,73.20
2022-08-05T07:57:17.748Z,75.47
2022-08-05T07:59:53.485Z,75.62
2022-08-05T08:02:31.434Z,73.41
2022-08-05T08:05:14.167Z,73.71
2022-08-05T08:08:00.024Z,74.63
2022-08-05T08:10:28.835Z,74.77
2022-08-05T08:12:58.572Z,76.56
2022-08-05T08:15:37.377Z,76.06
2022-08-05T08:18:14.315Z,75.06
2022-08-05T08:20:59.873Z,74.99
2022-08-05T08:24:02.973Z,75.21
2022-08-05T08:26:16.334Z,73.86
2022-08-05T08:28:59.110Z,72.59
2022-08-05T08:31:27.295Z,73.48
2022-08-05T08:33:54.352Z,74.33
2022-08-05T08:36:38.197Z,74.43
2022-08-05T08:39:15.547Z,72.85
2022-08-05T08:41:51.945Z,74.06
2022-08-05T08:45:23.520Z,75.22
2022-08-05T08:48:07.621Z,75.60
2022-08-05T08:50:31.907Z,76.68
2022-08-05T08:53:12.204Z,76.48
2022-08-05T08:56:04.357Z,76.50
2022-08-05T08:58:43.231Z,81.07
2022-08-05T09:01:17.165Z,82.90
2022-08-05T09:03:57.576Z,81.57
2022-08-05T09:06:30.605Z,82.92
2022-08-05T09:09:02.980Z,82.85
2022-08-05T09:11:51.955Z,83.97
2022-08-05T09:14:56.989Z,82.63
2022-08-05T09:17:40.828Z,81.13
2022-08-05T09:20:06.360Z,80.69
2022-08-05T09:23:21.567Z,80.81
2022-08-05T09:26:09.510Z,78.75
2022-08-05T09:28:40.985Z,78.65
2022-08-05T09:31:44.174Z,77.93
2022-08-05T09:34:11.475Z,75.79
2022-08-05T09:36:55.697Z,75.17
2022-08-05T09:39:41.632Z,76.02
2022-08-05T09:42:23.919Z,76.38
2022-08-05T09:44:57.376Z,77.81
2022-08-05T09:47:55.159Z,75.62
2022-08-05T09:50:44.283Z,77.27
2022-08-05T09:53:23.002Z,79.57
2022-08-05T09:56:11.421Z,77.71
2022-08-05T09:58:41.930Z,76.83
2022-08-05T10:01:15.364Z,77.87
2022-08-05T10:04:17.762Z,80.36
2022-08-05T10:06:59.100Z,81.98
2022-08-05T10:09:29.903Z,86.47
2022-08-05T10:12:30.497Z,87.24
2022-08-05T10:15:30.122Z,85.19
2022-08-05T10:18:27.254Z,88.87
2022-08-05T10:21:08.343Z,84.70
2022-08-05T10:24:00.132Z,86.80
2022-08-05T10:26:31.697Z,87.54
2022-08-05T10:29:01.277Z,82.35
2022-08-05T10:32:51.665Z,85.29
2022-08-05T10:34:16.807Z,85.48
2022-08-05T10:36:45.895Z,83.79
2022-08-05T10:40:03.585Z,87.45
2022-08-05T10:42:33.525Z,93.13
2022-08-05T10:45:21.466Z,94.07
2022-08-05T10:48:27.624Z,95.19
2022-08-05T10:51:21.900Z,100.00
2022-08-05T10:54:05.685Z,100.00
2022-08-05T10:56:58.513Z,100.00
2022-08-05T11:00:02.060Z,100.00
2022-08-05T11:02:34.743Z,100.00
2022-08-05T11:05:10.214Z,100.00
2022-08-05T11:08:17.056Z,100.00
2022-08-05T11:11:00.277Z,100.00
2022-08-05T11:13:54.751Z,98.49
2022-08-05T11:16:33.926Z,95.54
2022-08-05T11:20:17.031Z,96.43
2022-08-05T11:22:42.539Z,84.81
2022-08-05T11:26:04.086Z,92.66
2022-08-05T11:28:25.672Z,88.61
2022-08-05T11:31:01.813Z,84.03
2022-08-05T11:33:51.736Z,84.72
2022-08-05T11:36:44.734Z,73.96
2022-08-05T11:39:37.285Z,76.68
2022-08-05T11:42:12.241Z,76.99
2022-08-05T11:44:53.629Z,77.87
2022-08-05T11:47:48.932Z,74.71
2022-08-05T11:50:14.389Z,75.18
2022-08-05T11:52:44.005Z,78.29
2022-08-05T11:55:13.949Z,76.79
2022-08-05T11:58:09.940Z,71.86
2022-08-05T12:00:38.550Z,72.58
2022-08-05T12:03:28.366Z,70.53
2022-08-05T12:06:06.114Z,71.95
2022-08-05T12:08:51.414Z,71.08
2022-08-05T12:11:28.377Z,70.50
2022-08-05T12:14:10.065Z,69.14
2022-08-05T12:16:45.198Z,69.63
2022-08-05T12:20:17.224Z,70.38
2022-08-05T12:22:01.126Z,68.76
2022-08-05T12:24:28.702Z,69.87
2022-08-05T12:26:57.575Z,69.45
2022-08-05T12:29:38.713Z,70.52
2022-08-05T12:32:07.507Z,67.52
2022-08-05T12:34:39.129Z,68.07
2022-08-05T12:37:17.325Z,67.83
2022-08-05T12:40:03.499Z,65.67
2022-08-05T12:42:37.692Z,64.21
2022-08-05T12:45:10.117Z,61.48
2022-08-05T12:47:38.596Z,65.24
2022-08-05T12:50:25.600Z,62.70
2022-08-05T12:52:59.693Z,63.18
2022-08-05T12:55:32.577Z,63.34
2022-08-05T12:58:48.495Z,61.42
2022-08-05T13:02:00.180Z,62.38
2022-08-05T13:03:42.506Z,62.25
2022-08-05T13:06:18.035Z,62.73
2022-08-05T13:08:51.657Z,60.35
2022-08-05T13:12:02.634Z,61.81
2022-08-05T13:14:20.092Z,60.42
2022-08-05T13:17:00.881Z,59.34
2022-08-05T13:19:47.291Z,60.12
2022-08-05T13:22:29.119Z,58.38
2022-08-05T13:25:05.651Z,56.46
2022-08-05T13:27:50.408Z,56.82
2022-08-05T13:30:33.560Z,56.74
2022-08-05T13:33:03.366Z,58.34
2022-08-05T13:35:42.837Z,56.66
2022-08-05T13:38:30.161Z,56.94
2022-08-05T13:40:59.999Z,56.23
2022-08-05T13:43:45.891Z,56.43
2022-08-05T13:46:16.126Z,57.88
2022-08-05T13:49:00.344Z,58.89
2022-08-05T13:51:40.034Z,60.37
2022-08-05T13:54:12.406Z,60.41
2022-08-05T13:56:45.318Z,61.17
2022-08-05T13:59:26.832Z,60.08
2022-08-05T14:01:58.910Z,59.56
2022-08-05T14:05:03.165Z,59.79
2022-08-05T14:08:01.101Z,59.58
2022-08-05T14:10:28.668Z,59.53
2022-08-05T14:12:59.397Z,59.06
2022-08-05T14:16:07.937Z,56.36
2022-08-05T14:18:17.543Z,54.64
2022-08-05T14:20:49.164Z,55.27
2022-08-05T14:23:25.940Z,56.15
2022-08-05T14:25:58.398Z,58.50
2022-08-05T14:28:31.014Z,59.17
2022-08-05T14:31:01.628Z,59.95
2022-08-05T14:33:56.487Z,62.59
2022-08-05T14:36:20.620Z,62.22
2022-08-05T14:38:49.640Z,61.78
2022-08-05T14:41:18.525Z,61.69
2022-08-05T14:43:57.733Z,61.89
2022-08-05T14:46:31.374Z,61.84
2022-08-05T14:49:06.346Z,60.75
2022-08-05T14:51:42.968Z,61.74
2022-08-05T14:54:27.892Z,62.29
2022-08-05T14:56:59.543Z,62.44
2022-08-05T14:59:29.165Z,62.05
2022-08-05T15:01:57.806Z,63.79
2022-08-05T15:04:28.906Z,64.28
2022-08-05T15:06:56.627Z,64.93
2022-08-05T15:09:50.633Z,65.88
2022-08-05T15:12:16.591Z,66.84
2022-08-05T15:14:50.274Z,67.55
2022-08-05T15:17:46.502Z,68.67
2022-08-05T15:20:18.630Z,69.21
2022-08-05T15:22:54.122Z,70.33
2022-08-05T15:25:52.968Z,70.39
2022-08-05T15:28:14.481Z,71.03
2022-08-05T15:30:45.868Z,71.33
2022-08-05T15:33:53.686Z,73.06
2022-08-05T15:36:06.430Z,73.70
2022-08-05T15:38:44.496Z,74.06
2022-08-05T15:41:22.782Z,74.91
2022-08-05T15:43:54.808Z,75.34
2022-08-05T15:46:24.798Z,77.07
2022-08-05T15:49:01.357Z,77.12
2022-08-05T15:52:09.676Z,78.42
2022-08-05T15:54:37.324Z,79.17
2022-08-05T15:57:07.375Z,79.37
2022-08-05T15:59:36.109Z,79.94
2022-08-05T16:02:03.614Z,80.83
2022-08-05T16:07:04.573Z,81.84
2022-08-05T16:09:33.037Z,84.51
2022-08-05T16:12:00.740Z,84.46
2022-08-05T16:14:27.815Z,84.25
2022-08-05T16:16:54.944Z,84.49
2022-08-05T16:20:02.946Z,84.74
2022-08-05T16:22:10.593Z,84.48
2022-08-05T16:24:41.307Z,84.99
2022-08-05T16:27:18.411Z,84.00
2022-08-05T16:29:50.773Z,83.01
2022-08-05T16:32:28.701Z,82.64
2022-08-05T16:34:58.912Z,83.26
2022-08-05T16:38:15.391Z,83.20
2022-08-05T16:40:28.627Z,84.74
2022-08-05T16:42:56.545Z,85.39
2022-08-05T16:46:05.994Z,85.88
2022-08-05T16:48:10.690Z,87.11
2022-08-05T16:50:38.415Z,87.77
2022-08-05T16:53:12.641Z,88.95
2022-08-05T16:55:50.642Z,89.30
2022-08-05T16:58:19.887Z,88.61
2022-08-05T17:00:49.476Z,87.74
2022-08-05T17:03:20.074Z,86.58
2022-08-05T17:05:54.042Z,86.99
2022-08-05T17:08:36.385Z,88.77
2022-08-05T17:11:18.671Z,90.31
2022-08-05T17:13:46.351Z,90.38
2022-08-05T17:16:32.702Z,89.44
2022-08-05T17:19:01.741Z,92.31
2022-08-05T17:21:35.766Z,93.00
2022-08-05T17:24:30.234Z,92.50
2022-08-05T17:26:59.613Z,94.30
2022-08-05T17:29:33.698Z,95.42
2022-08-05T17:32:17.260Z,97.05
2022-08-05T17:34:47.609Z,96.82
2022-08-05T17:37:41.040Z,98.53
2022-08-05T17:42:51.464Z,95.37
2022-08-05T17:45:38.181Z,96.43
2022-08-05T17:48:08.045Z,96.63
2022-08-05T17:50:35.598Z,93.95
2022-08-05T17:53:05.427Z,94.70
2022-08-05T17:55:38.803Z,93.78
2022-08-05T17:58:13.776Z,91.45
2022-08-05T18:00:47.877Z,89.49
2022-08-05T18:03:56.356Z,88.18
2022-08-05T18:06:11.378Z,87.07
2022-08-05T18:08:40.734Z,87.16
2022-08-05T18:11:24.711Z,87.14
2022-08-05T18:14:04.275Z,87.13
2022-08-05T18:16:46.747Z,87.68
2022-08-05T18:19:18.662Z,88.45
2022-08-05T18:22:07.548Z,89.01
2022-08-05T18:24:37.963Z,89.50
2022-08-05T18:27:12.334Z,90.13
2022-08-05T18:29:54.090Z,90.69
2022-08-05T18:32:27.661Z,92.36
2022-08-05T18:34:54.926Z,93.05
2022-08-05T18:37:34.090Z,92.13
2022-08-05T18:40:31.727Z,92.52
2022-08-05T18:42:57.098Z,92.81
2022-08-05T18:45:24.801Z,93.67
2022-08-05T18:47:56.376Z,92.23
2022-08-05T18:50:46.935Z,92.61
2022-08-05T18:53:20.815Z,92.40
2022-08-05T18:55:52.082Z,92.39
2022-08-05T18:58:28.866Z,92.53
2022-08-05T19:00:57.068Z,91.66
2022-08-05T19:03:55.249Z,91.83
2022-08-05T19:06:21.755Z,91.18
2022-08-05T19:08:49.885Z,90.30
2022-08-05T19:11:27.951Z,90.08
2022-08-05T19:14:00.990Z,91.21
2022-08-05T19:16:33.124Z,89.73
2022-08-05T19:19:14.595Z,89.89
2022-08-05T19:21:41.544Z,90.96
2022-08-05T19:24:12.595Z,90.53
2022-08-05T19:26:43.874Z,89.15
2022-08-05T19:29:36.138Z,89.34
2022-08-05T19:32:11.074Z,85.45
2022-08-05T19:34:39.160Z,85.57
2022-08-05T19:37:06.757Z,84.23
2022-08-05T19:39:45.528Z,83.80
2022-08-05T19:42:35.391Z,84.49
2022-08-05T19:45:06.088Z,82.62
2022-08-05T19:47:37.972Z,80.81
2022-08-05T19:50:07.844Z,79.33
2022-08-05T19:52:38.052Z,79.61
2022-08-05T19:55:07.046Z,79.17
2022-08-05T19:58:14.348Z,78.54
2022-08-05T20:00:40.572Z,78.43
2022-08-05T20:03:08.696Z,78.00
2022-08-05T20:05:43.035Z,78.27
2022-08-05T20:08:10.799Z,77.75
2022-08-05T20:10:38.116Z,77.34
2022-08-05T20:13:12.194Z,77.93
2022-08-05T20:15:51.761Z,77.62
2022-08-05T20:18:35.197Z,77.51
2022-08-05T20:21:06.963Z,78.21
2022-08-05T20:23:50.802Z,78.83
2022-08-05T20:26:25.485Z,79.28
2022-08-05T20:29:00.759Z,79.93
2022-08-05T20:31:43.863Z,79.24
2022-08-05T20:34:16.695Z,79.25
2022-08-05T20:36:44.977Z,79.45
2022-08-05T20:39:16.574Z,79.47
2022-08-05T20:41:45.236Z,79.01
2022-08-05T20:44:29.380Z,79.68
2022-08-05T20:47:01.603Z,79.29
2022-08-05T20:49:38.153Z,81.46
2022-08-05T20:52:08.643Z,81.01
2022-08-05T20:54:43.377Z,82.03
2022-08-05T20:57:24.709Z,82.38
2022-08-05T21:00:35.048Z,84.09
2022-08-05T21:03:07.078Z,85.06
2022-08-05T21:05:53.637Z,84.73
2022-08-05T21:08:26.617Z,86.20
2022-08-05T21:12:04.520Z,87.79
2022-08-05T21:14:01.858Z,88.52
2022-08-05T21:16:30.761Z,89.30
2022-08-05T21:19:01.448Z,89.85
2022-08-05T21:21:39.818Z,90.83
2022-08-05T21:24:19.513Z,91.26
2022-08-05T21:26:53.754Z,91.34
2022-08-05T21:29:31.322Z,91.93
2022-08-05T21:32:02.259Z,91.89
2022-08-05T21:34:31.632Z,92.59
2022-08-05T21:37:00.588Z,93.32
2022-08-05T21:39:28.926Z,94.26
2022-08-05T21:42:01.857Z,94.85
2022-08-05T21:44:31.780Z,95.72
2022-08-05T21:47:00.374Z,96.77
2022-08-05T21:49:48.205Z,96.57
2022-08-05T21:52:27.855Z,96.71
2022-08-05T21:55:06.354Z,97.54
2022-08-05T21:57:36.217Z,98.05
2022-08-05T22:00:12.367Z,98.96
2022-08-05T22:02:41.512Z,99.68
2022-08-05T22:05:12.428Z,100.00
2022-08-05T22:07:59.161Z,100.00
2022-08-05T22:10:29.645Z,100.00
2022-08-05T22:14:05.050Z,100.00
2022-08-05T22:16:01.703Z,100.00
2022-08-05T22:18:32.047Z,100.00
2022-08-05T22:20:59.188Z,100.00
2022-08-05T22:24:01.992Z,100.00
2022-08-05T22:26:49.662Z,100.00
2022-08-05T22:29:18.823Z,100.00
2022-08-05T22:31:59.111Z,100.00
2022-08-05T22:34:28.738Z,100.00
2022-08-05T22:36:59.821Z,100.00
2022-08-05T22:39:33.420Z,100.00
2022-08-05T22:42:12.370Z,100.00
2022-08-05T22:44:48.305Z,100.00
2022-08-05T22:47:29.268Z,100.00
2022-08-05T22:50:20.195Z,100.00
2022-08-05T22:52:51.262Z,100.00
2022-08-05T22:55:22.115Z,100.00
2022-08-05T22:57:53.408Z,100.00
2022-08-05T23:00:23.650Z,99.63
2022-08-05T23:02:53.698Z,98.67
2022-08-05T23:05:22.903Z,94.90
2022-08-05T23:07:52.358Z,94.52
2022-08-05T23:10:23.816Z,93.75
2022-08-05T23:12:54.429Z,92.48
2022-08-05T23:15:29.293Z,93.26
2022-08-05T23:18:02.099Z,89.57
2022-08-05T23:20:32.760Z,87.39
2022-08-05T23:23:03.514Z,86.31
2022-08-05T23:25:52.145Z,85.45
2022-08-05T23:28:21.958Z,85.33
2022-08-05T23:30:53.260Z,84.91
2022-08-05T23:34:03.087Z,85.05
2022-08-05T23:36:09.934Z,85.58
2022-08-05T23:38:38.307Z,85.45
2022-08-05T23:41:05.834Z,85.06
2022-08-05T23:43:37.401Z,86.41
2022-08-05T23:46:22.134Z,87.30
2022-08-05T23:48:59.773Z,87.29
2022-08-05T23:51:51.699Z,86.84
2022-08-05T23:54:25.309Z,87.10
2022-08-05T23:57:03.163Z,87.27
